Aldrich, Minnesota
Current Conditions -  °F | °C
As of 8:33 AM on Sunday 25 Jan 2015 (Local Time) from KSAZ Reporting Station
Overcast Overcast  
Wind Chill: 15°   Ceiling: 10000
Heat Index: 21°   Visibility: 10mi
Dew Point: 16°   Wind: 5mph
Humidity: 80%   Direction: 90°E
Pressure: 29.97"   Gusts: NA
Location:  46.38°N, 94.94°W
Report Text: KSAZ 251433Z AUTO 09004KT 10SM OVC100 M06/M09 A2997 RMK AO2
Loading
Personal Weather Stations






























Interactive Weather Map New forecast layout! Learn more

10-Day Weather Forecast

Advertisements
Track Severe Weather on mobile